Time;durP1;ratioP1;P1;durP2;ratioP2;P2;SDS_P1;SDS_P2;PMS_P1;PMS_P2;Temp;Humidity;BMP_temperature;BMP_pressure;BME280_temperature;BME280_humidity;BME280_pressure;Samples;Min_cycle;Max_cycle;Signal;HPM_P1;HPM_P2
2024/02/29 00:02:05;;;;;;;8.10;5.80;;;;;;;;;;5111792;28;20232;-80
2024/02/29 00:04:34;;;;;;;7.67;5.70;;;;;;;;;;5111200;28;20643;-79
2024/02/29 00:07:02;;;;;;;8.13;5.37;;;;;;;;;;5111085;28;20247;-80
2024/02/29 00:09:29;;;;;;;9.07;5.27;;;;;;;;;;5111195;28;20236;-80
2024/02/29 00:11:57;;;;;;;6.50;5.20;;;;;;;;;;5111312;28;20243;-78
2024/02/29 00:14:24;;;;;;;8.60;5.70;;;;;;;;;;5111255;28;20276;-79
2024/02/29 00:16:52;;;;;;;8.23;5.47;;;;;;;;;;5111723;28;20194;-79
2024/02/29 00:19:21;;;;;;;6.90;5.13;;;;;;;;;;5111541;28;20305;-79
2024/02/29 00:21:48;;;;;;;8.10;5.53;;;;;;;;;;5111357;28;20201;-79
2024/02/29 00:24:15;;;;;;;7.13;5.07;;;;;;;;;;5111109;28;20225;-79
2024/02/29 00:26:43;;;;;;;7.20;5.23;;;;;;;;;;5111027;28;20206;-79
2024/02/29 00:29:10;;;;;;;6.40;5.07;;;;;;;;;;5111407;28;20806;-79
2024/02/29 00:31:37;;;;;;;7.73;4.83;;;;;;;;;;5111536;28;20200;-78
2024/02/29 00:34:05;;;;;;;7.10;4.80;;;;;;;;;;5111297;28;20284;-79
2024/02/29 00:36:33;;;;;;;8.30;4.67;;;;;;;;;;5110991;28;20222;-79
2024/02/29 00:39:00;;;;;;;6.47;4.00;;;;;;;;;;5110905;28;20198;-80
2024/02/29 00:41:27;;;;;;;6.70;4.20;;;;;;;;;;5110920;28;20237;-79
2024/02/29 00:43:54;;;;;;;5.93;4.10;;;;;;;;;;5110961;28;20710;-79
2024/02/29 00:46:22;;;;;;;5.67;3.80;;;;;;;;;;5096039;28;20202;-79
2024/02/29 00:48:49;;;;;;;5.73;4.10;;;;;;;;;;5114451;28;20196;-79
2024/02/29 00:51:17;;;;;;;5.60;3.80;;;;;;;;;;5114071;28;20190;-78
2024/02/29 00:53:45;;;;;;;4.93;3.53;;;;;;;;;;5114287;28;20721;-79
2024/02/29 00:56:12;;;;;;;4.00;3.37;;;;;;;;;;5115141;28;20197;-79
2024/02/29 00:58:39;;;;;;;4.80;3.30;;;;;;;;;;5114962;28;20273;-79
2024/02/29 01:01:06;;;;;;;3.27;2.83;;;;;;;;;;5114210;28;20329;-78
2024/02/29 01:03:34;;;;;;;4.23;3.30;;;;;;;;;;5114553;28;20194;-79
2024/02/29 01:06:01;;;;;;;4.57;3.23;;;;;;;;;;5114530;28;20679;-80
2024/02/29 01:08:30;;;;;;;3.97;3.07;;;;;;;;;;5113771;28;20201;-78
2024/02/29 01:10:57;;;;;;;3.30;2.73;;;;;;;;;;5114575;28;20742;-78
2024/02/29 01:13:24;;;;;;;4.27;3.10;;;;;;;;;;5113959;28;20272;-79
2024/02/29 01:15:52;;;;;;;5.07;3.07;;;;;;;;;;5114559;28;20266;-79
2024/02/29 01:18:19;;;;;;;4.13;3.00;;;;;;;;;;5114387;28;20331;-80
2024/02/29 01:20:46;;;;;;;3.40;2.60;;;;;;;;;;5114221;28;20225;-79
2024/02/29 01:23:13;;;;;;;4.33;2.67;;;;;;;;;;5113467;28;20189;-79
2024/02/29 01:25:42;;;;;;;3.77;2.63;;;;;;;;;;5114852;28;20190;-78
2024/02/29 01:28:09;;;;;;;5.23;2.67;;;;;;;;;;5113868;28;20289;-79
2024/02/29 01:30:36;;;;;;;3.57;2.57;;;;;;;;;;5114454;28;20204;-78
2024/02/29 01:33:03;;;;;;;3.97;2.50;;;;;;;;;;5114433;28;20200;-79
2024/02/29 01:35:31;;;;;;;3.60;2.30;;;;;;;;;;5114407;28;20281;-79
2024/02/29 01:37:58;;;;;;;3.13;2.20;;;;;;;;;;5113624;28;20771;-79
2024/02/29 01:40:25;;;;;;;2.70;2.10;;;;;;;;;;5114092;28;20225;-79
2024/02/29 01:42:54;;;;;;;3.03;1.80;;;;;;;;;;5114007;28;20293;-79
2024/02/29 01:45:21;;;;;;;2.93;1.97;;;;;;;;;;5113907;28;20200;-79
2024/02/29 01:47:48;;;;;;;3.73;1.97;;;;;;;;;;5113889;28;20204;-78
2024/02/29 01:50:17;;;;;;;2.33;1.63;;;;;;;;;;5113991;28;20293;-79
2024/02/29 01:52:44;;;;;;;2.83;2.00;;;;;;;;;;5113129;28;20281;-79
2024/02/29 01:55:12;;;;;;;3.33;1.80;;;;;;;;;;5113843;28;20686;-80
2024/02/29 01:57:39;;;;;;;3.67;1.80;;;;;;;;;;5113506;28;20281;-79
2024/02/29 02:00:09;;;;;;;4.93;1.97;;;;;;;;;;5113547;28;20257;-79
2024/02/29 02:02:37;;;;;;;3.00;1.80;;;;;;;;;;5113531;28;20209;-79
2024/02/29 02:05:05;;;;;;;2.97;1.90;;;;;;;;;;5113197;28;20197;-79
2024/02/29 02:07:33;;;;;;;2.60;1.87;;;;;;;;;;5113387;28;20277;-79
2024/02/29 02:10:01;;;;;;;2.40;1.70;;;;;;;;;;5113545;28;20243;-79
2024/02/29 02:12:28;;;;;;;3.23;2.27;;;;;;;;;;5113418;28;20295;-78
2024/02/29 02:14:55;;;;;;;3.33;2.00;;;;;;;;;;5113192;28;20759;-79
2024/02/29 02:17:23;;;;;;;2.67;2.20;;;;;;;;;;5105344;28;20288;-79
2024/02/29 02:19:51;;;;;;;2.63;1.90;;;;;;;;;;5093678;28;20299;-78
2024/02/29 02:22:19;;;;;;;3.80;2.40;;;;;;;;;;5092712;28;20285;-79
2024/02/29 02:24:46;;;;;;;3.57;2.40;;;;;;;;;;5092976;28;20203;-79
2024/02/29 02:27:13;;;;;;;3.40;2.10;;;;;;;;;;5092744;28;20194;-79
2024/02/29 02:29:41;;;;;;;2.80;2.40;;;;;;;;;;5092689;28;20286;-80
2024/02/29 02:32:11;;;;;;;5.17;2.50;;;;;;;;;;5092643;28;20226;-78
2024/02/29 02:34:39;;;;;;;3.23;2.10;;;;;;;;;;5092411;28;20199;-78
2024/02/29 02:37:06;;;;;;;2.80;2.10;;;;;;;;;;5094880;28;20682;-78
2024/02/29 02:39:34;;;;;;;4.20;2.30;;;;;;;;;;5112562;28;20759;-79
2024/02/29 02:42:01;;;;;;;3.77;2.63;;;;;;;;;;5112912;28;20906;-79
2024/02/29 02:44:28;;;;;;;3.10;2.40;;;;;;;;;;5113322;28;20198;-78
2024/02/29 02:46:56;;;;;;;3.83;2.87;;;;;;;;;;5112702;28;20229;-79
2024/02/29 02:49:23;;;;;;;3.43;2.70;;;;;;;;;;5112272;28;20293;-79
2024/02/29 02:51:50;;;;;;;4.60;2.77;;;;;;;;;;5113054;28;20198;-79
2024/02/29 02:54:17;;;;;;;3.17;2.60;;;;;;;;;;5112811;28;20216;-79
2024/02/29 02:56:46;;;;;;;3.10;2.53;;;;;;;;;;5112687;28;20190;-79
2024/02/29 02:59:13;;;;;;;4.17;2.80;;;;;;;;;;5112575;28;20284;-79
2024/02/29 03:01:40;;;;;;;7.07;3.00;;;;;;;;;;5112167;28;20221;-79
2024/02/29 03:04:07;;;;;;;5.40;2.77;;;;;;;;;;5112412;28;20281;-78
2024/02/29 03:06:34;;;;;;;3.00;2.30;;;;;;;;;;5112208;28;20200;-79
2024/02/29 03:09:01;;;;;;;2.63;2.10;;;;;;;;;;5111691;28;20578;-79
2024/02/29 03:11:29;;;;;;;2.70;2.27;;;;;;;;;;5112262;28;20780;-79
2024/02/29 03:13:57;;;;;;;2.90;2.20;;;;;;;;;;5112011;28;20210;-77
2024/02/29 03:16:25;;;;;;;2.20;1.83;;;;;;;;;;5112011;28;20194;-79
2024/02/29 03:18:53;;;;;;;2.13;1.73;;;;;;;;;;5112137;28;20204;-79
2024/02/29 03:21:20;;;;;;;2.47;1.70;;;;;;;;;;5111609;28;20225;-79
2024/02/29 03:23:47;;;;;;;2.10;1.50;;;;;;;;;;5111746;28;20197;-79
2024/02/29 03:26:15;;;;;;;1.70;1.50;;;;;;;;;;5112109;28;20293;-79
2024/02/29 03:28:42;;;;;;;5.03;1.80;;;;;;;;;;5112003;28;20660;-79
2024/02/29 03:31:12;;;;;;;1.67;1.23;;;;;;;;;;5112492;28;20198;-79
2024/02/29 03:33:39;;;;;;;2.17;1.60;;;;;;;;;;5111852;28;20190;-79
2024/02/29 03:36:06;;;;;;;2.03;1.60;;;;;;;;;;5111794;28;20285;-79
2024/02/29 03:38:34;;;;;;;1.80;1.40;;;;;;;;;;5111774;28;20200;-79
2024/02/29 03:41:01;;;;;;;3.13;1.40;;;;;;;;;;5111596;28;20231;-79
2024/02/29 03:43:28;;;;;;;2.17;1.73;;;;;;;;;;5112247;28;20288;-79
2024/02/29 03:45:55;;;;;;;3.03;1.77;;;;;;;;;;5111467;28;20225;-79
2024/02/29 03:48:24;;;;;;;1.70;1.43;;;;;;;;;;5111095;28;20259;-79
2024/02/29 03:50:52;;;;;;;1.80;1.43;;;;;;;;;;5111935;28;20284;-79
2024/02/29 03:53:20;;;;;;;1.47;1.30;;;;;;;;;;5111359;28;20201;-79
2024/02/29 03:55:47;;;;;;;2.27;1.20;;;;;;;;;;5111584;28;20203;-79
2024/02/29 03:58:15;;;;;;;2.17;1.13;;;;;;;;;;5111866;28;20199;-79
2024/02/29 04:00:43;;;;;;;1.33;1.20;;;;;;;;;;5111220;28;20229;-79
2024/02/29 04:03:10;;;;;;;2.70;1.20;;;;;;;;;;5111043;28;20247;-79
2024/02/29 04:05:39;;;;;;;1.30;1.10;;;;;;;;;;5112033;28;20190;-79
2024/02/29 04:08:11;;;;;;;1.93;1.13;;;;;;;;;;5110857;28;20288;-79
2024/02/29 04:10:38;;;;;;;1.63;1.00;;;;;;;;;;5111298;28;20201;-79
2024/02/29 04:13:05;;;;;;;2.03;0.90;;;;;;;;;;5111602;28;20280;-79
2024/02/29 04:15:32;;;;;;;2.40;0.93;;;;;;;;;;5110972;28;20208;-79
2024/02/29 04:17:59;;;;;;;3.00;1.00;;;;;;;;;;5112009;28;20193;-79
2024/02/29 04:20:26;;;;;;;1.83;0.80;;;;;;;;;;5112644;28;20200;-79
2024/02/29 04:22:55;;;;;;;1.60;0.77;;;;;;;;;;5115682;28;20284;-80
2024/02/29 04:25:23;;;;;;;3.47;0.80;;;;;;;;;;5115797;28;20204;-80
2024/02/29 04:27:51;;;;;;;3.57;1.00;;;;;;;;;;5115274;28;20194;-79
2024/02/29 04:30:18;;;;;;;3.13;1.00;;;;;;;;;;5115049;28;20708;-80
2024/02/29 04:32:45;;;;;;;1.97;0.97;;;;;;;;;;5115331;28;20218;-79
2024/02/29 04:35:13;;;;;;;1.77;0.83;;;;;;;;;;5115362;28;20292;-80
2024/02/29 04:37:40;;;;;;;2.27;0.90;;;;;;;;;;5114866;28;20293;-80
2024/02/29 04:40:11;;;;;;;2.87;1.30;;;;;;;;;;5115167;28;20236;-79
2024/02/29 04:42:38;;;;;;;2.93;1.10;;;;;;;;;;5115612;28;20361;-79
2024/02/29 04:45:05;;;;;;;2.33;1.00;;;;;;;;;;5115402;28;20197;-79
2024/02/29 04:47:33;;;;;;;4.47;1.10;;;;;;;;;;5115415;28;20739;-79
2024/02/29 04:50:00;;;;;;;2.23;0.90;;;;;;;;;;5114860;28;20722;-79
2024/02/29 04:52:27;;;;;;;2.47;0.90;;;;;;;;;;5115163;28;20225;-79
2024/02/29 04:54:54;;;;;;;2.57;1.00;;;;;;;;;;5114814;28;20259;-79
2024/02/29 04:57:23;;;;;;;2.30;0.90;;;;;;;;;;5115300;28;20284;-79
2024/02/29 04:59:50;;;;;;;3.13;1.10;;;;;;;;;;5114603;28;20288;-79
2024/02/29 05:02:17;;;;;;;2.83;0.97;;;;;;;;;;5114644;28;20317;-80
2024/02/29 05:04:44;;;;;;;4.63;1.10;;;;;;;;;;5114464;28;20277;-80
2024/02/29 05:07:12;;;;;;;3.93;1.27;;;;;;;;;;5115018;28;20281;-79
2024/02/29 05:09:39;;;;;;;4.93;1.30;;;;;;;;;;5114513;28;20256;-79
2024/02/29 05:12:06;;;;;;;5.20;1.43;;;;;;;;;;5115080;28;20198;-80
2024/02/29 05:14:35;;;;;;;2.00;1.20;;;;;;;;;;5113972;28;20661;-79
2024/02/29 05:17:02;;;;;;;7.70;1.63;;;;;;;;;;5114850;28;20206;-80
2024/02/29 05:19:30;;;;;;;5.30;1.50;;;;;;;;;;5113973;28;20194;-79
2024/02/29 05:21:57;;;;;;;6.07;1.33;;;;;;;;;;5114149;28;20229;-79
2024/02/29 05:24:24;;;;;;;5.40;1.60;;;;;;;;;;5096532;28;20284;-79
2024/02/29 05:26:52;;;;;;;4.37;1.10;;;;;;;;;;5114676;28;20288;-79
2024/02/29 05:29:19;;;;;;;5.43;1.20;;;;;;;;;;5114295;28;20189;-80
2024/02/29 05:31:52;;;;;;;5.77;1.20;;;;;;;;;;5114141;28;20723;-79
2024/02/29 05:34:20;;;;;;;9.37;1.40;;;;;;;;;;5114543;28;20204;-79
2024/02/29 05:36:48;;;;;;;4.97;1.20;;;;;;;;;;5114189;28;20190;-79
2024/02/29 05:39:15;;;;;;;4.83;1.27;;;;;;;;;;5114326;28;20206;-79
2024/02/29 05:41:42;;;;;;;7.10;1.53;;;;;;;;;;5114115;28;20624;-80
2024/02/29 05:44:09;;;;;;;8.43;1.93;;;;;;;;;;5113712;28;20202;-79
2024/02/29 05:46:36;;;;;;;5.63;1.70;;;;;;;;;;5114231;28;20672;-79
2024/02/29 05:49:05;;;;;;;8.47;1.73;;;;;;;;;;5113824;28;20204;-80
2024/02/29 05:51:32;;;;;;;6.87;1.70;;;;;;;;;;5113674;28;20746;-79
2024/02/29 05:53:59;;;;;;;6.70;1.63;;;;;;;;;;5113543;28;20728;-80
2024/02/29 05:56:26;;;;;;;5.87;1.50;;;;;;;;;;5113402;28;20194;-79
2024/02/29 05:58:54;;;;;;;5.13;1.40;;;;;;;;;;5113058;28;20204;-79
2024/02/29 06:01:21;;;;;;;5.17;1.37;;;;;;;;;;5113983;28;20222;-80
2024/02/29 06:03:48;;;;;;;8.33;1.90;;;;;;;;;;5113695;28;20659;-78
2024/02/29 06:06:17;;;;;;;5.27;1.57;;;;;;;;;;5113187;28;20284;-79
2024/02/29 06:08:45;;;;;;;3.73;1.40;;;;;;;;;;5113521;28;20320;-79
2024/02/29 06:11:15;;;;;;;11.60;1.70;;;;;;;;;;5113597;28;20677;-79
2024/02/29 06:13:43;;;;;;;8.87;1.90;;;;;;;;;;5112952;28;20217;-80
2024/02/29 06:16:12;;;;;;;7.30;1.70;;;;;;;;;;5113411;28;20204;-79
2024/02/29 06:18:39;;;;;;;8.80;1.70;;;;;;;;;;5113411;28;20201;-80
2024/02/29 06:21:07;;;;;;;7.80;1.87;;;;;;;;;;5113303;28;20664;-79
2024/02/29 06:23:37;;;;;;;6.77;1.63;;;;;;;;;;5113370;28;20201;-79
2024/02/29 06:26:04;;;;;;;7.37;1.90;;;;;;;;;;5112683;28;20224;-79
2024/02/29 06:28:31;;;;;;;9.03;2.13;;;;;;;;;;5112975;28;20194;-80
2024/02/29 06:30:59;;;;;;;5.87;1.90;;;;;;;;;;5112869;28;20288;-80
2024/02/29 06:33:26;;;;;;;8.87;2.27;;;;;;;;;;5113299;28;20197;-79
2024/02/29 06:35:53;;;;;;;9.27;2.17;;;;;;;;;;5113177;28;20202;-79
2024/02/29 06:38:20;;;;;;;6.70;1.90;;;;;;;;;;5112589;28;20292;-79
2024/02/29 06:40:49;;;;;;;5.93;1.97;;;;;;;;;;5113131;28;20276;-79
2024/02/29 06:43:17;;;;;;;9.40;1.87;;;;;;;;;;5111803;28;20229;-79
2024/02/29 06:45:47;;;;;;;8.10;2.37;;;;;;;;;;5112965;28;20190;-79
2024/02/29 06:48:15;;;;;;;9.17;2.00;;;;;;;;;;5113314;28;20190;-80
2024/02/29 06:50:42;;;;;;;6.33;2.10;;;;;;;;;;5112350;28;20202;-80
2024/02/29 06:53:09;;;;;;;5.63;1.77;;;;;;;;;;5112828;28;20202;-79
2024/02/29 06:55:37;;;;;;;7.90;1.90;;;;;;;;;;5112117;28;20202;-80
2024/02/29 06:58:06;;;;;;;6.77;1.90;;;;;;;;;;5112151;28;20220;-79
2024/02/29 07:00:33;;;;;;;10.03;2.10;;;;;;;;;;5112047;28;20193;-79
2024/02/29 07:03:01;;;;;;;6.30;1.57;;;;;;;;;;5111811;28;20320;-79
2024/02/29 07:05:28;;;;;;;7.03;2.07;;;;;;;;;;5112626;28;20220;-80
2024/02/29 07:07:56;;;;;;;5.40;2.00;;;;;;;;;;5111888;28;20198;-79
2024/02/29 07:10:23;;;;;;;6.93;2.13;;;;;;;;;;5111646;28;20253;-80
2024/02/29 07:12:49;;;;;;;6.73;1.73;;;;;;;;;;5112413;28;20201;-79
2024/02/29 07:15:18;;;;;;;5.20;2.07;;;;;;;;;;5111925;28;20280;-80
2024/02/29 07:17:45;;;;;;;8.03;1.77;;;;;;;;;;5111950;28;20363;-79
2024/02/29 07:20:14;;;;;;;7.07;1.67;;;;;;;;;;5111854;28;20198;-79
2024/02/29 07:22:41;;;;;;;8.47;1.77;;;;;;;;;;5112275;28;20225;-79
2024/02/29 07:25:09;;;;;;;6.73;1.80;;;;;;;;;;5111748;28;20292;-79
2024/02/29 07:27:38;;;;;;;6.13;1.67;;;;;;;;;;5111829;28;20292;-79
2024/02/29 07:30:07;;;;;;;6.93;1.37;;;;;;;;;;5112106;28;20246;-80
2024/02/29 07:32:35;;;;;;;9.13;1.80;;;;;;;;;;5112178;28;20682;-79
2024/02/29 07:35:03;;;;;;;7.03;1.70;;;;;;;;;;5111540;28;20284;-79
2024/02/29 07:37:30;;;;;;;6.07;1.60;;;;;;;;;;5111775;28;20228;-79
2024/02/29 07:39:57;;;;;;;6.10;1.73;;;;;;;;;;5111114;28;20284;-80
2024/02/29 07:42:24;;;;;;;4.63;1.67;;;;;;;;;;5112189;28;20310;-79
2024/02/29 07:44:52;;;;;;;8.47;2.07;;;;;;;;;;5111707;28;20221;-79
2024/02/29 07:47:19;;;;;;;5.30;1.50;;;;;;;;;;5111706;28;20233;-80
2024/02/29 07:49:48;;;;;;;4.83;1.57;;;;;;;;;;5111645;28;20221;-80
2024/02/29 07:52:15;;;;;;;8.63;1.83;;;;;;;;;;5111549;28;20232;-80
2024/02/29 07:54:43;;;;;;;8.13;1.80;;;;;;;;;;5111069;28;20229;-79
2024/02/29 07:57:11;;;;;;;6.47;1.60;;;;;;;;;;5111064;28;20209;-79
2024/02/29 07:59:38;;;;;;;5.23;1.70;;;;;;;;;;5111663;28;20186;-79
2024/02/29 08:02:05;;;;;;;7.90;1.77;;;;;;;;;;5111786;28;20222;-79
2024/02/29 08:04:33;;;;;;;10.03;1.80;;;;;;;;;;5111429;28;20738;-79
2024/02/29 08:07:02;;;;;;;8.87;2.17;;;;;;;;;;5111818;28;20202;-79
2024/02/29 08:09:29;;;;;;;8.57;2.13;;;;;;;;;;5111050;28;20233;-79
2024/02/29 08:11:57;;;;;;;9.83;2.47;;;;;;;;;;5111220;28;20681;-79
2024/02/29 08:14:25;;;;;;;9.37;2.03;;;;;;;;;;5111382;28;20308;-79
2024/02/29 08:16:52;;;;;;;8.80;2.03;;;;;;;;;;5111760;28;20281;-79
2024/02/29 08:19:19;;;;;;;10.50;1.90;;;;;;;;;;5111536;28;20196;-78
2024/02/29 08:21:47;;;;;;;9.13;2.40;;;;;;;;;;5108986;28;20284;-79
2024/02/29 08:24:16;;;;;;;9.73;2.20;;;;;;;;;;5109476;28;20738;-79
2024/02/29 08:26:43;;;;;;;7.40;2.47;;;;;;;;;;5102228;28;20738;-80
2024/02/29 08:29:13;;;;;;;10.40;2.40;;;;;;;;;;5111443;28;20659;-80
2024/02/29 08:31:41;;;;;;;8.93;2.30;;;;;;;;;;5111759;28;20208;-81
2024/02/29 08:34:08;;;;;;;10.30;2.47;;;;;;;;;;5111409;28;20225;-80
2024/02/29 08:36:35;;;;;;;6.17;2.20;;;;;;;;;;5110796;28;20198;-80
2024/02/29 08:39:03;;;;;;;6.90;1.93;;;;;;;;;;5111354;28;20750;-80
2024/02/29 08:41:31;;;;;;;6.40;1.80;;;;;;;;;;5111139;28;20204;-81
2024/02/29 08:43:58;;;;;;;6.38;1.85;;;;;;;;;;5111293;28;20229;-81
2024/02/29 08:46:25;;;;;;;9.15;2.03;;;;;;;;;;5111604;28;20277;-80
2024/02/29 08:48:53;;;;;;;4.80;1.38;;;;;;;;;;5111310;28;20200;-81
2024/02/29 08:51:20;;;;;;;6.18;1.60;;;;;;;;;;5110955;28;20288;-82
2024/02/29 08:53:47;;;;;;;9.80;1.77;;;;;;;;;;5110948;28;20202;-80
2024/02/29 08:56:14;;;;;;;7.28;1.58;;;;;;;;;;5110917;28;20221;-80
2024/02/29 08:58:43;;;;;;;9.95;1.80;;;;;;;;;;5111409;28;20671;-79
2024/02/29 09:01:10;;;;;;;5.20;1.50;;;;;;;;;;5111220;28;20204;-79
2024/02/29 09:03:37;;;;;;;9.55;1.83;;;;;;;;;;5111273;28;20391;-78
2024/02/29 09:06:05;;;;;;;6.15;1.52;;;;;;;;;;5111711;28;20292;-78
2024/02/29 09:08:32;;;;;;;5.93;1.42;;;;;;;;;;5114410;28;20264;-79
2024/02/29 09:10:59;;;;;;;9.00;2.17;;;;;;;;;;5115046;28;20193;-79
2024/02/29 09:13:27;;;;;;;8.43;1.60;;;;;;;;;;5114670;28;20216;-79
2024/02/29 09:15:56;;;;;;;12.13;2.33;;;;;;;;;;5114892;28;20194;-79
2024/02/29 09:18:23;;;;;;;9.87;2.37;;;;;;;;;;5114303;28;20616;-79
2024/02/29 09:20:51;;;;;;;5.53;1.57;;;;;;;;;;5114294;28;20202;-79
2024/02/29 09:23:18;;;;;;;8.33;1.53;;;;;;;;;;5113800;28;20232;-80
2024/02/29 09:25:45;;;;;;;9.33;1.80;;;;;;;;;;5114288;28;20289;-80
2024/02/29 09:28:12;;;;;;;4.60;1.43;;;;;;;;;;5114629;28;20659;-79
2024/02/29 09:30:40;;;;;;;6.13;1.60;;;;;;;;;;5114238;28;20229;-79
2024/02/29 09:33:08;;;;;;;7.37;1.70;;;;;;;;;;5114422;28;20248;-79
2024/02/29 09:35:35;;;;;;;5.20;1.80;;;;;;;;;;5113730;28;20227;-80
2024/02/29 09:38:04;;;;;;;11.50;1.80;;;;;;;;;;5113988;28;20207;-79
2024/02/29 09:40:31;;;;;;;12.00;1.83;;;;;;;;;;5113986;28;20193;-79
2024/02/29 09:42:59;;;;;;;8.00;1.70;;;;;;;;;;5113845;28;20232;-79
2024/02/29 09:45:26;;;;;;;5.60;1.43;;;;;;;;;;5114081;28;20593;-79
2024/02/29 09:47:53;;;;;;;7.13;1.90;;;;;;;;;;5113561;28;20577;-79
2024/02/29 09:50:21;;;;;;;8.03;1.93;;;;;;;;;;5113535;28;20705;-80
2024/02/29 09:52:50;;;;;;;7.33;1.50;;;;;;;;;;5113752;28;20631;-80
2024/02/29 09:55:18;;;;;;;8.53;2.90;;;;;;;;;;5113777;28;20285;-79
2024/02/29 09:57:46;;;;;;;8.30;1.67;;;;;;;;;;5113526;28;20201;-80
2024/02/29 10:00:13;;;;;;;7.13;1.70;;;;;;;;;;5113800;28;20200;-79
2024/02/29 10:02:42;;;;;;;11.88;2.08;;;;;;;;;;5113530;28;20315;-81
2024/02/29 10:05:10;;;;;;;9.90;1.98;;;;;;;;;;5106755;28;20195;-80
2024/02/29 10:07:43;;;;;;;6.18;1.70;;;;;;;;;;5102413;28;20217;-79
2024/02/29 10:10:13;;;;;;;9.00;2.25;;;;;;;;;;5093042;28;20707;-80
2024/02/29 10:12:40;;;;;;;7.55;1.80;;;;;;;;;;5092726;28;20308;-81
2024/02/29 10:15:10;;;;;;;11.80;2.60;;;;;;;;;;5093351;28;20286;-82
2024/02/29 10:17:37;;;;;;;9.20;1.73;;;;;;;;;;5102530;28;20225;-82
2024/02/29 10:20:07;;;;;;;7.03;1.45;;;;;;;;;;5113244;28;20198;-82
2024/02/29 10:22:34;;;;;;;9.40;1.83;;;;;;;;;;5112787;28;20228;-82
2024/02/29 10:25:03;;;;;;;5.70;1.17;;;;;;;;;;5113516;28;20194;-82
2024/02/29 10:27:30;;;;;;;7.50;1.60;;;;;;;;;;5110211;27;20612;-82
2024/02/29 10:29:59;;;;;;;12.57;1.80;;;;;;;;;;5113810;27;20225;-82
2024/02/29 10:32:26;;;;;;;7.90;1.33;;;;;;;;;;5112085;28;20289;-82
2024/02/29 10:34:53;;;;;;;11.47;1.33;;;;;;;;;;5114939;27;20190;-81
2024/02/29 10:37:20;;;;;;;7.63;1.47;;;;;;;;;;5112306;28;20197;-80
2024/02/29 10:39:47;;;;;;;10.63;1.90;;;;;;;;;;5109991;28;20274;-80
2024/02/29 10:42:17;;;;;;;7.53;1.50;;;;;;;;;;5109711;28;20652;-80
2024/02/29 10:44:46;;;;;;;6.43;1.50;;;;;;;;;;5111900;27;20656;-80
2024/02/29 10:47:15;;;;;;;6.53;1.50;;;;;;;;;;5104418;27;20202;-81
2024/02/29 10:49:46;;;;;;;8.10;1.27;;;;;;;;;;5107317;28;20277;-77
2024/02/29 10:52:20;;;;;;;7.20;1.27;;;;;;;;;;5107745;28;20186;-77
2024/02/29 10:54:50;;;;;;;5.70;1.50;;;;;;;;;;5109641;28;20200;-77
2024/02/29 10:57:23;;;;;;;7.17;1.50;;;;;;;;;;5107615;28;20656;-76
2024/02/29 10:59:53;;;;;;;10.20;1.63;;;;;;;;;;5103812;28;20194;-78
2024/02/29 11:02:21;;;;;;;5.67;1.43;;;;;;;;;;5105127;28;20190;-78
2024/02/29 11:04:48;;;;;;;7.90;1.83;;;;;;;;;;5107647;28;20687;-77
2024/02/29 11:07:16;;;;;;;6.00;1.43;;;;;;;;;;5108005;28;20277;-80
2024/02/29 11:09:43;;;;;;;8.40;1.30;;;;;;;;;;5106589;28;20743;-80
2024/02/29 11:12:13;;;;;;;4.43;1.37;;;;;;;;;;5119140;27;20670;-81
2024/02/29 11:14:44;;;;;;;9.27;1.63;;;;;;;;;;5118611;27;20221;-81
2024/02/29 11:17:14;;;;;;;3.88;0.90;;;;;;;;;;5112571;27;20221;-77
2024/02/29 11:19:41;;;;;;;6.15;1.30;;;;;;;;;;5114893;27;20242;-80
2024/02/29 11:22:15;;;;;;;4.35;1.50;;;;;;;;;;5112445;27;20292;-79
2024/02/29 11:24:44;;;;;;;4.65;1.50;;;;;;;;;;5115132;27;20220;-81
2024/02/29 11:27:11;;;;;;;7.68;1.83;;;;;;;;;;5113996;27;20792;-80
2024/02/29 11:29:39;;;;;;;5.18;1.20;;;;;;;;;;5114092;27;20726;-81
2024/02/29 11:32:08;;;;;;;7.85;1.52;;;;;;;;;;5111970;27;20202;-82
2024/02/29 11:34:35;;;;;;;5.13;1.10;;;;;;;;;;5108515;27;20201;-83
2024/02/29 11:37:07;;;;;;;5.53;1.40;;;;;;;;;;5114380;27;20209;-81
2024/02/29 11:39:34;;;;;;;5.05;1.30;;;;;;;;;;5113903;27;20492;-84
2024/02/29 11:42:02;;;;;;;8.43;1.17;;;;;;;;;;5109698;27;20199;-82
2024/02/29 11:44:30;;;;;;;6.18;1.20;;;;;;;;;;5104849;27;20809;-84
2024/02/29 11:46:59;;;;;;;4.95;1.17;;;;;;;;;;5112876;27;20225;-83
2024/02/29 11:49:28;;;;;;;6.05;1.40;;;;;;;;;;5107868;27;20201;-83
2024/02/29 11:51:56;;;;;;;5.80;1.38;;;;;;;;;;5112340;27;20764;-83
2024/02/29 11:54:23;;;;;;;6.35;1.73;;;;;;;;;;5115833;27;20197;-83
2024/02/29 11:56:50;;;;;;;4.65;1.95;;;;;;;;;;5114022;27;20193;-83
2024/02/29 11:59:19;;;;;;;5.93;1.77;;;;;;;;;;5105304;28;20304;-83
2024/02/29 12:01:46;;;;;;;7.90;1.90;;;;;;;;;;5105700;28;20655;-84
2024/02/29 12:04:13;;;;;;;11.88;2.10;;;;;;;;;;5107625;28;20320;-84
2024/02/29 12:06:43;;;;;;;4.40;1.27;;;;;;;;;;5102021;28;20233;-85
2024/02/29 12:09:13;;;;;;;4.30;1.30;;;;;;;;;;5112518;28;20225;-83
2024/02/29 12:11:41;;;;;;;6.30;1.47;;;;;;;;;;5112051;28;20206;-82
2024/02/29 12:14:09;;;;;;;3.97;1.20;;;;;;;;;;5109412;28;20296;-82
2024/02/29 12:16:37;;;;;;;8.00;1.30;;;;;;;;;;5105469;28;22343;-83
2024/02/29 12:19:05;;;;;;;4.90;1.20;;;;;;;;;;5106138;28;20201;-84
2024/02/29 12:21:34;;;;;;;6.20;1.57;;;;;;;;;;5112193;28;20193;-84
2024/02/29 12:24:03;;;;;;;7.87;1.63;;;;;;;;;;5112838;28;20245;-83
2024/02/29 12:26:30;;;;;;;7.67;1.33;;;;;;;;;;5109452;28;20194;-82
2024/02/29 12:28:57;;;;;;;5.15;1.15;;;;;;;;;;5108446;28;20228;-83
2024/02/29 12:31:25;;;;;;;3.88;1.10;;;;;;;;;;5107859;28;20198;-82
2024/02/29 12:33:52;;;;;;;3.92;1.02;;;;;;;;;;5088723;28;20194;-82
2024/02/29 12:36:21;;;;;;;3.70;1.15;;;;;;;;;;5088772;28;20198;-83
2024/02/29 12:38:48;;;;;;;5.15;1.15;;;;;;;;;;5105345;28;20198;-83
2024/02/29 12:41:17;;;;;;;4.07;0.95;;;;;;;;;;5109535;28;20293;-83
2024/02/29 12:43:48;;;;;;;3.60;0.95;;;;;;;;;;5112408;28;20256;-83
2024/02/29 12:46:15;;;;;;;6.80;1.30;;;;;;;;;;5095210;28;20200;-83
2024/02/29 12:48:43;;;;;;;4.05;1.35;;;;;;;;;;5092857;28;20190;-83
2024/02/29 12:51:10;;;;;;;4.10;1.15;;;;;;;;;;5092567;28;20567;-83
2024/02/29 12:53:37;;;;;;;6.35;1.70;;;;;;;;;;5104798;28;20766;-83
2024/02/29 12:56:05;;;;;;;4.28;1.38;;;;;;;;;;5109914;28;20285;-83
2024/02/29 12:58:34;;;;;;;7.15;1.23;;;;;;;;;;5103962;27;20687;-82
2024/02/29 13:01:03;;;;;;;2.17;0.85;;;;;;;;;;5110280;27;20281;-82
2024/02/29 13:03:31;;;;;;;5.25;1.30;;;;;;;;;;5122820;27;20221;-81
2024/02/29 13:05:58;;;;;;;8.57;1.38;;;;;;;;;;5116732;27;20559;-82
2024/02/29 13:08:25;;;;;;;5.63;1.05;;;;;;;;;;5118925;27;20682;-83
2024/02/29 13:10:52;;;;;;;4.82;1.38;;;;;;;;;;5115430;27;20705;-82
2024/02/29 13:13:19;;;;;;;2.97;0.80;;;;;;;;;;5119756;27;20637;-83
2024/02/29 13:15:48;;;;;;;3.97;0.82;;;;;;;;;;5117602;27;20297;-81
2024/02/29 13:18:15;;;;;;;7.22;1.42;;;;;;;;;;5117502;27;20707;-82
2024/02/29 13:20:43;;;;;;;4.00;0.80;;;;;;;;;;5118049;27;20766;-80
2024/02/29 13:23:10;;;;;;;3.05;0.70;;;;;;;;;;5115482;27;20603;-82
2024/02/29 13:25:37;;;;;;;3.85;0.80;;;;;;;;;;5119341;27;20248;-82
2024/02/29 13:28:11;;;;;;;3.63;0.85;;;;;;;;;;5118256;27;20229;-85
2024/02/29 13:30:38;;;;;;;2.78;0.80;;;;;;;;;;5105056;27;20284;-83
2024/02/29 13:33:09;;;;;;;3.38;0.88;;;;;;;;;;5116557;27;20209;-82
2024/02/29 13:35:36;;;;;;;6.43;1.10;;;;;;;;;;5118469;27;20201;-83
2024/02/29 13:38:06;;;;;;;5.15;0.93;;;;;;;;;;5108624;27;20229;-84
2024/02/29 13:40:36;;;;;;;4.63;0.88;;;;;;;;;;5115232;27;20209;-83
2024/02/29 13:43:21;;;;;;;5.65;0.80;;;;;;;;;;5119144;27;20217;-83
2024/02/29 13:45:49;;;;;;;5.38;1.33;;;;;;;;;;5113172;27;20204;-82
2024/02/29 13:48:17;;;;;;;4.32;1.10;;;;;;;;;;5113634;27;20742;-83
2024/02/29 13:50:45;;;;;;;4.07;0.80;;;;;;;;;;5118699;27;20209;-82
2024/02/29 13:53:12;;;;;;;3.47;1.10;;;;;;;;;;5115951;27;20190;-83
2024/02/29 13:55:39;;;;;;;3.83;0.90;;;;;;;;;;5114996;27;20197;-82
2024/02/29 13:58:06;;;;;;;5.85;1.30;;;;;;;;;;5117070;27;20271;-83
2024/02/29 14:00:33;;;;;;;3.75;1.27;;;;;;;;;;5119428;27;20190;-83
2024/02/29 14:03:02;;;;;;;5.47;0.90;;;;;;;;;;5116000;27;20221;-82
2024/02/29 14:05:30;;;;;;;3.90;1.10;;;;;;;;;;5124444;27;20309;-82
2024/02/29 14:07:58;;;;;;;4.45;0.80;;;;;;;;;;5118068;27;20197;-83
2024/02/29 14:10:31;;;;;;;3.35;0.80;;;;;;;;;;5122445;27;20224;-82
2024/02/29 14:12:58;;;;;;;2.85;0.80;;;;;;;;;;5117739;27;20193;-83
2024/02/29 14:15:25;;;;;;;5.53;0.73;;;;;;;;;;5117875;27;20273;-83
2024/02/29 14:17:52;;;;;;;2.40;0.80;;;;;;;;;;5117353;27;20210;-82
2024/02/29 14:20:19;;;;;;;2.83;0.70;;;;;;;;;;5122066;27;20268;-82
2024/02/29 14:22:51;;;;;;;4.45;0.60;;;;;;;;;;5119363;27;20194;-83
2024/02/29 14:25:22;;;;;;;4.43;1.00;;;;;;;;;;5118487;27;20222;-83
2024/02/29 14:27:53;;;;;;;1.83;0.70;;;;;;;;;;5112825;27;20244;-83
2024/02/29 14:30:23;;;;;;;2.65;0.77;;;;;;;;;;5110902;27;20567;-83
2024/02/29 14:32:52;;;;;;;3.78;1.20;;;;;;;;;;5105880;27;20927;-82
2024/02/29 14:35:22;;;;;;;3.13;0.80;;;;;;;;;;5121436;27;20965;-82
2024/02/29 14:37:51;;;;;;;3.25;0.80;;;;;;;;;;5115038;27;20305;-82
2024/02/29 14:40:18;;;;;;;6.72;0.80;;;;;;;;;;5113998;27;20223;-82
2024/02/29 14:42:46;;;;;;;3.97;0.68;;;;;;;;;;5116182;27;20197;-82
2024/02/29 14:45:13;;;;;;;2.60;0.50;;;;;;;;;;5110363;27;20622;-81
2024/02/29 14:47:40;;;;;;;2.53;0.50;;;;;;;;;;5111875;27;20203;-81